sensor_id;sensor_type;location;lat;lon;timestamp;pressure;altitude;pressure_sealevel;temperature;humidity
64844;BME280;51310;52.198;5.422;2023-09-18T00:00:54;100534.28;;;17.58;99.26
64844;BME280;51310;52.198;5.422;2023-09-18T00:03:22;100529.31;;;17.63;99.36
64844;BME280;51310;52.198;5.422;2023-09-18T00:05:51;100517.34;;;17.66;99.32
64844;BME280;51310;52.198;5.422;2023-09-18T00:08:19;100519.47;;;17.62;99.21
64844;BME280;51310;52.198;5.422;2023-09-18T00:10:51;100518.63;;;17.62;98.87
64844;BME280;51310;52.198;5.422;2023-09-18T00:13:19;100487.50;;;17.58;98.95
64844;BME280;51310;52.198;5.422;2023-09-18T00:15:45;100505.84;;;17.64;98.98
64844;BME280;51310;52.198;5.422;2023-09-18T00:18:14;100488.53;;;17.57;98.92
64844;BME280;51310;52.198;5.422;2023-09-18T00:20:41;100481.81;;;17.61;98.88
64844;BME280;51310;52.198;5.422;2023-09-18T00:23:09;100467.44;;;17.60;98.61
64844;BME280;51310;52.198;5.422;2023-09-18T00:25:35;100463.16;;;17.67;98.66
64844;BME280;51310;52.198;5.422;2023-09-18T00:28:03;100458.72;;;17.66;98.54
64844;BME280;51310;52.198;5.422;2023-09-18T00:30:29;100447.81;;;17.58;98.53
64844;BME280;51310;52.198;5.422;2023-09-18T00:32:55;100457.06;;;17.65;98.60
64844;BME280;51310;52.198;5.422;2023-09-18T00:35:21;100450.78;;;17.65;98.39
64844;BME280;51310;52.198;5.422;2023-09-18T00:37:48;100449.22;;;17.62;98.51
64844;BME280;51310;52.198;5.422;2023-09-18T00:40:14;100444.00;;;17.61;98.29
64844;BME280;51310;52.198;5.422;2023-09-18T00:42:40;100442.44;;;17.58;98.55
64844;BME280;51310;52.198;5.422;2023-09-18T00:45:07;100443.59;;;17.56;98.26
64844;BME280;51310;52.198;5.422;2023-09-18T00:47:35;100437.78;;;17.51;98.50
64844;BME280;51310;52.198;5.422;2023-09-18T00:50:03;100434.25;;;17.50;98.38
64844;BME280;51310;52.198;5.422;2023-09-18T00:52:32;100426.03;;;17.42;98.34
64844;BME280;51310;52.198;5.422;2023-09-18T00:55:00;100410.84;;;17.41;98.26
64844;BME280;51310;52.198;5.422;2023-09-18T00:57:28;100401.88;;;17.40;98.26
64844;BME280;51310;52.198;5.422;2023-09-18T00:59:54;100398.44;;;17.48;98.35
64844;BME280;51310;52.198;5.422;2023-09-18T01:02:20;100398.81;;;17.53;98.17
64844;BME280;51310;52.198;5.422;2023-09-18T01:04:47;100393.72;;;17.50;98.41
64844;BME280;51310;52.198;5.422;2023-09-18T01:07:14;100380.75;;;17.54;98.36
64844;BME280;51310;52.198;5.422;2023-09-18T01:09:41;100369.41;;;17.50;98.44
64844;BME280;51310;52.198;5.422;2023-09-18T01:12:36;100377.28;;;17.61;98.29
64844;BME280;51310;52.198;5.422;2023-09-18T01:15:36;100382.22;;;17.66;98.27
64844;BME280;51310;52.198;5.422;2023-09-18T01:18:10;100369.72;;;17.65;98.23
64844;BME280;51310;52.198;5.422;2023-09-18T01:20:36;100344.50;;;17.56;97.82
64844;BME280;51310;52.198;5.422;2023-09-18T01:23:02;100354.75;;;17.71;97.90
64844;BME280;51310;52.198;5.422;2023-09-18T01:25:30;100331.41;;;17.69;97.63
64844;BME280;51310;52.198;5.422;2023-09-18T01:27:56;100336.75;;;17.79;97.56
64844;BME280;51310;52.198;5.422;2023-09-18T01:30:22;100339.59;;;17.78;97.38
64844;BME280;51310;52.198;5.422;2023-09-18T01:32:50;100323.00;;;17.73;97.43
64844;BME280;51310;52.198;5.422;2023-09-18T01:35:19;100326.78;;;17.80;97.10
64844;BME280;51310;52.198;5.422;2023-09-18T01:37:49;100314.28;;;17.79;97.18
64844;BME280;51310;52.198;5.422;2023-09-18T01:40:16;100321.09;;;17.83;96.69
64844;BME280;51310;52.198;5.422;2023-09-18T01:42:43;100288.94;;;17.80;96.72
64844;BME280;51310;52.198;5.422;2023-09-18T01:45:11;100304.59;;;17.86;96.68
64844;BME280;51310;52.198;5.422;2023-09-18T01:47:37;100310.56;;;17.80;96.56
64844;BME280;51310;52.198;5.422;2023-09-18T01:50:04;100310.69;;;17.88;96.41
64844;BME280;51310;52.198;5.422;2023-09-18T01:52:33;100321.63;;;17.86;96.43
64844;BME280;51310;52.198;5.422;2023-09-18T01:55:03;100302.88;;;17.85;96.52
64844;BME280;51310;52.198;5.422;2023-09-18T01:57:33;100290.25;;;17.76;96.54
64844;BME280;51310;52.198;5.422;2023-09-18T01:59:59;100290.63;;;17.81;96.61
64844;BME280;51310;52.198;5.422;2023-09-18T02:02:25;100282.31;;;17.74;96.35
64844;BME280;51310;52.198;5.422;2023-09-18T02:04:51;100285.88;;;17.75;96.43
64844;BME280;51310;52.198;5.422;2023-09-18T02:07:16;100293.28;;;17.73;96.50
64844;BME280;51310;52.198;5.422;2023-09-18T02:09:42;100296.38;;;17.78;96.44
64844;BME280;51310;52.198;5.422;2023-09-18T02:12:09;100306.19;;;17.79;96.68
64844;BME280;51310;52.198;5.422;2023-09-18T02:14:34;100311.75;;;17.77;96.72
64844;BME280;51310;52.198;5.422;2023-09-18T02:17:00;100310.91;;;17.77;96.58
64844;BME280;51310;52.198;5.422;2023-09-18T02:19:26;100315.13;;;17.79;96.63
64844;BME280;51310;52.198;5.422;2023-09-18T02:21:52;100314.28;;;17.79;96.84
64844;BME280;51310;52.198;5.422;2023-09-18T02:24:22;100316.31;;;17.77;96.73
64844;BME280;51310;52.198;5.422;2023-09-18T02:26:49;100318.31;;;17.75;96.93
64844;BME280;51310;52.198;5.422;2023-09-18T02:29:14;100313.19;;;17.72;96.98
64844;BME280;51310;52.198;5.422;2023-09-18T02:31:41;100318.59;;;17.72;97.07
64844;BME280;51310;52.198;5.422;2023-09-18T02:34:06;100300.16;;;17.67;97.02
64844;BME280;51310;52.198;5.422;2023-09-18T02:36:33;100283.72;;;17.60;97.03
64844;BME280;51310;52.198;5.422;2023-09-18T02:38:59;100284.13;;;17.65;97.20
64844;BME280;51310;52.198;5.422;2023-09-18T02:41:25;100252.31;;;17.59;97.21
64844;BME280;51310;52.198;5.422;2023-09-18T02:43:51;100254.16;;;17.59;97.18
64844;BME280;51310;52.198;5.422;2023-09-18T02:46:16;100259.94;;;17.64;97.28
64844;BME280;51310;52.198;5.422;2023-09-18T02:48:42;100253.00;;;17.61;97.43
64844;BME280;51310;52.198;5.422;2023-09-18T02:51:08;100251.84;;;17.64;97.48
64844;BME280;51310;52.198;5.422;2023-09-18T02:53:34;100241.03;;;17.64;97.29
64844;BME280;51310;52.198;5.422;2023-09-18T02:56:00;100239.31;;;17.63;97.51
64844;BME280;51310;52.198;5.422;2023-09-18T02:58:27;100226.28;;;17.58;97.62
64844;BME280;51310;52.198;5.422;2023-09-18T03:00:56;100229.38;;;17.63;97.45
64844;BME280;51310;52.198;5.422;2023-09-18T03:03:26;100215.66;;;17.57;97.65
64844;BME280;51310;52.198;5.422;2023-09-18T03:05:52;100215.31;;;17.60;97.65
64844;BME280;51310;52.198;5.422;2023-09-18T03:08:18;100202.66;;;17.60;97.77
64844;BME280;51310;52.198;5.422;2023-09-18T03:10:44;100193.03;;;17.58;97.81
64844;BME280;51310;52.198;5.422;2023-09-18T03:13:14;100187.78;;;17.56;97.75
64844;BME280;51310;52.198;5.422;2023-09-18T03:15:45;100165.78;;;17.51;97.88
64844;BME280;51310;52.198;5.422;2023-09-18T03:18:12;100173.41;;;17.56;97.76
64844;BME280;51310;52.198;5.422;2023-09-18T03:20:39;100168.88;;;17.56;97.98
64844;BME280;51310;52.198;5.422;2023-09-18T03:23:05;100169.72;;;17.57;98.07
64844;BME280;51310;52.198;5.422;2023-09-18T03:25:31;100175.66;;;17.60;98.14
64844;BME280;51310;52.198;5.422;2023-09-18T03:27:57;100171.94;;;17.61;97.87
64844;BME280;51310;52.198;5.422;2023-09-18T03:30:24;100174.66;;;17.61;98.34
64844;BME280;51310;52.198;5.422;2023-09-18T03:32:51;100157.28;;;17.64;98.13
64844;BME280;51310;52.198;5.422;2023-09-18T03:35:18;100146.09;;;17.59;98.26
64844;BME280;51310;52.198;5.422;2023-09-18T03:37:52;100147.63;;;17.61;98.23
64844;BME280;51310;52.198;5.422;2023-09-18T03:40:20;100152.03;;;17.62;98.08
64844;BME280;51310;52.198;5.422;2023-09-18T03:42:46;100149.16;;;17.64;98.23
64844;BME280;51310;52.198;5.422;2023-09-18T03:45:13;100165.22;;;17.65;98.23
64844;BME280;51310;52.198;5.422;2023-09-18T03:47:40;100167.28;;;17.72;98.14
64844;BME280;51310;52.198;5.422;2023-09-18T03:50:10;100154.91;;;17.61;98.12
64844;BME280;51310;52.198;5.422;2023-09-18T03:52:38;100153.72;;;17.63;98.32
64844;BME280;51310;52.198;5.422;2023-09-18T03:55:06;100182.31;;;17.74;98.28
64844;BME280;51310;52.198;5.422;2023-09-18T03:57:32;100172.53;;;17.73;98.37
64844;BME280;51310;52.198;5.422;2023-09-18T03:59:58;100161.56;;;17.75;98.17
64844;BME280;51310;52.198;5.422;2023-09-18T04:02:25;100154.66;;;17.80;98.25
64844;BME280;51310;52.198;5.422;2023-09-18T04:04:53;100154.53;;;17.82;98.27
64844;BME280;51310;52.198;5.422;2023-09-18T04:07:20;100145.03;;;17.78;98.44
64844;BME280;51310;52.198;5.422;2023-09-18T04:09:46;100126.59;;;17.73;98.52
64844;BME280;51310;52.198;5.422;2023-09-18T04:12:12;100138.19;;;17.83;98.19
64844;BME280;51310;52.198;5.422;2023-09-18T04:14:39;100126.75;;;17.72;98.29
64844;BME280;51310;52.198;5.422;2023-09-18T04:17:05;100135.94;;;17.79;98.29
64844;BME280;51310;52.198;5.422;2023-09-18T04:19:31;100130.81;;;17.76;98.29
64844;BME280;51310;52.198;5.422;2023-09-18T04:21:57;100145.25;;;17.84;98.12
64844;BME280;51310;52.198;5.422;2023-09-18T04:24:23;100136.31;;;17.84;98.47
64844;BME280;51310;52.198;5.422;2023-09-18T04:26:51;100120.38;;;17.81;98.22
64844;BME280;51310;52.198;5.422;2023-09-18T04:29:18;100120.44;;;17.89;98.30
64844;BME280;51310;52.198;5.422;2023-09-18T04:31:45;100105.59;;;17.93;98.06
64844;BME280;51310;52.198;5.422;2023-09-18T04:34:11;100091.41;;;17.91;98.26
64844;BME280;51310;52.198;5.422;2023-09-18T04:36:37;100110.72;;;18.04;98.14
64844;BME280;51310;52.198;5.422;2023-09-18T04:39:06;100098.38;;;18.02;98.08
64844;BME280;51310;52.198;5.422;2023-09-18T04:41:33;100076.56;;;17.95;97.99
64844;BME280;51310;52.198;5.422;2023-09-18T04:43:59;100097.34;;;18.03;98.13
64844;BME280;51310;52.198;5.422;2023-09-18T04:46:25;100095.50;;;18.03;98.19
64844;BME280;51310;52.198;5.422;2023-09-18T04:48:51;100091.47;;;18.07;98.17
64844;BME280;51310;52.198;5.422;2023-09-18T04:51:17;100088.59;;;18.09;98.06
64844;BME280;51310;52.198;5.422;2023-09-18T04:53:43;100076.63;;;18.12;97.88
64844;BME280;51310;52.198;5.422;2023-09-18T04:56:09;100082.84;;;18.12;97.72
64844;BME280;51310;52.198;5.422;2023-09-18T04:58:38;100055.13;;;18.02;97.83
64844;BME280;51310;52.198;5.422;2023-09-18T05:01:04;100047.75;;;18.20;97.68
64844;BME280;51310;52.198;5.422;2023-09-18T05:03:35;100071.63;;;18.33;97.52
64844;BME280;51310;52.198;5.422;2023-09-18T05:06:02;100068.56;;;18.36;97.63
64844;BME280;51310;52.198;5.422;2023-09-18T05:08:31;100127.03;;;18.37;97.23
64844;BME280;51310;52.198;5.422;2023-09-18T05:10:57;100139.44;;;18.40;97.04
64844;BME280;51310;52.198;5.422;2023-09-18T05:13:23;100136.19;;;18.36;97.22
64844;BME280;51310;52.198;5.422;2023-09-18T05:15:49;100129.41;;;18.24;96.78
64844;BME280;51310;52.198;5.422;2023-09-18T05:18:15;100135.94;;;18.21;97.00
64844;BME280;51310;52.198;5.422;2023-09-18T05:20:41;100132.06;;;18.16;97.20
64844;BME280;51310;52.198;5.422;2023-09-18T05:23:07;100117.22;;;18.20;97.47
64844;BME280;51310;52.198;5.422;2023-09-18T05:25:34;100105.03;;;18.16;97.78
64844;BME280;51310;52.198;5.422;2023-09-18T05:28:04;100116.34;;;18.19;97.73
64844;BME280;51310;52.198;5.422;2023-09-18T05:30:33;100111.81;;;18.20;97.97
64844;BME280;51310;52.198;5.422;2023-09-18T05:33:02;100107.03;;;18.14;97.89
64844;BME280;51310;52.198;5.422;2023-09-18T05:35:39;100127.00;;;18.21;98.13
64844;BME280;51310;52.198;5.422;2023-09-18T05:38:08;100116.88;;;18.23;98.15
64844;BME280;51310;52.198;5.422;2023-09-18T05:40:39;100120.41;;;18.23;98.27
64844;BME280;51310;52.198;5.422;2023-09-18T05:43:06;100140.22;;;18.24;98.35
64844;BME280;51310;52.198;5.422;2023-09-18T05:45:33;100125.31;;;18.20;98.44
64844;BME280;51310;52.198;5.422;2023-09-18T05:47:59;100130.94;;;18.26;98.17
64844;BME280;51310;52.198;5.422;2023-09-18T05:50:34;100137.66;;;18.22;98.40
64844;BME280;51310;52.198;5.422;2023-09-18T05:53:03;100130.72;;;18.20;98.51
64844;BME280;51310;52.198;5.422;2023-09-18T05:55:33;100133.75;;;18.17;98.21
64844;BME280;51310;52.198;5.422;2023-09-18T05:58:00;100127.66;;;18.15;98.33
64844;BME280;51310;52.198;5.422;2023-09-18T06:00:28;100138.84;;;18.20;98.26
64844;BME280;51310;52.198;5.422;2023-09-18T06:02:56;100122.44;;;18.13;98.29
64844;BME280;51310;52.198;5.422;2023-09-18T06:05:22;100108.06;;;18.13;98.43
64844;BME280;51310;52.198;5.422;2023-09-18T06:07:48;100117.03;;;18.13;98.43
64844;BME280;51310;52.198;5.422;2023-09-18T06:10:15;100108.72;;;18.06;98.58
64844;BME280;51310;52.198;5.422;2023-09-18T06:12:44;100122.44;;;18.13;98.76
64844;BME280;51310;52.198;5.422;2023-09-18T06:15:11;100121.59;;;18.13;98.61
64844;BME280;51310;52.198;5.422;2023-09-18T06:17:39;100122.22;;;18.06;98.36
64844;BME280;51310;52.198;5.422;2023-09-18T06:20:08;100120.84;;;18.02;98.73
64844;BME280;51310;52.198;5.422;2023-09-18T06:22:39;100132.19;;;18.06;98.64
64844;BME280;51310;52.198;5.422;2023-09-18T06:25:07;100121.19;;;18.07;98.61
64844;BME280;51310;52.198;5.422;2023-09-18T06:27:38;100108.72;;;18.15;98.93
64844;BME280;51310;52.198;5.422;2023-09-18T06:30:06;100117.41;;;18.26;98.78
64844;BME280;51310;52.198;5.422;2023-09-18T06:32:32;100124.84;;;18.24;98.77
64844;BME280;51310;52.198;5.422;2023-09-18T06:34:59;100115.00;;;18.23;99.00
64844;BME280;51310;52.198;5.422;2023-09-18T06:37:25;100123.50;;;18.28;99.16
64844;BME280;51310;52.198;5.422;2023-09-18T06:39:52;100126.00;;;18.30;98.96
64844;BME280;51310;52.198;5.422;2023-09-18T06:42:18;100125.19;;;18.29;98.87
64844;BME280;51310;52.198;5.422;2023-09-18T06:44:45;100131.81;;;18.35;99.08
64844;BME280;51310;52.198;5.422;2023-09-18T06:47:11;100131.13;;;18.33;99.07
64844;BME280;51310;52.198;5.422;2023-09-18T06:49:37;100113.53;;;18.37;98.93
64844;BME280;51310;52.198;5.422;2023-09-18T06:52:03;100126.88;;;18.39;99.23
64844;BME280;51310;52.198;5.422;2023-09-18T06:54:30;100116.06;;;18.39;99.10
64844;BME280;51310;52.198;5.422;2023-09-18T06:56:56;100123.69;;;18.43;99.10
64844;BME280;51310;52.198;5.422;2023-09-18T06:59:22;100133.31;;;18.46;99.11
64844;BME280;51310;52.198;5.422;2023-09-18T07:01:48;100123.00;;;18.41;99.13
64844;BME280;51310;52.198;5.422;2023-09-18T07:04:13;100128.09;;;18.44;99.24
64844;BME280;51310;52.198;5.422;2023-09-18T07:06:40;100132.03;;;18.58;99.04
64844;BME280;51310;52.198;5.422;2023-09-18T07:09:06;100130.84;;;18.61;98.89
64844;BME280;51310;52.198;5.422;2023-09-18T07:11:33;100143.03;;;18.65;99.01
64844;BME280;51310;52.198;5.422;2023-09-18T07:13:59;100117.16;;;18.62;99.18
64844;BME280;51310;52.198;5.422;2023-09-18T07:16:26;100129.50;;;18.73;98.86
64844;BME280;51310;52.198;5.422;2023-09-18T07:18:52;100136.66;;;18.82;98.95
64844;BME280;51310;52.198;5.422;2023-09-18T07:21:18;100145.81;;;18.89;98.78
64844;BME280;51310;52.198;5.422;2023-09-18T07:23:45;100133.78;;;18.84;98.55
64844;BME280;51310;52.198;5.422;2023-09-18T07:26:11;100145.28;;;18.86;98.26
64844;BME280;51310;52.198;5.422;2023-09-18T07:28:37;100153.91;;;18.98;97.62
64844;BME280;51310;52.198;5.422;2023-09-18T07:31:08;100127.03;;;18.96;97.47
64844;BME280;51310;52.198;5.422;2023-09-18T07:33:35;100138.34;;;19.00;97.42
64844;BME280;51310;52.198;5.422;2023-09-18T07:36:01;100139.03;;;19.02;97.16
64844;BME280;51310;52.198;5.422;2023-09-18T07:38:28;100125.34;;;19.03;96.75
64844;BME280;51310;52.198;5.422;2023-09-18T07:40:54;100120.25;;;19.00;96.22
64844;BME280;51310;52.198;5.422;2023-09-18T07:43:21;100117.91;;;19.05;96.14
64844;BME280;51310;52.198;5.422;2023-09-18T07:45:50;100137.34;;;19.09;95.72
64844;BME280;51310;52.198;5.422;2023-09-18T07:48:16;100130.94;;;19.10;95.37
64844;BME280;51310;52.198;5.422;2023-09-18T07:50:46;100122.28;;;19.06;95.22
64844;BME280;51310;52.198;5.422;2023-09-18T07:53:15;100135.31;;;19.19;94.89
64844;BME280;51310;52.198;5.422;2023-09-18T07:55:41;100139.19;;;19.25;94.68
64844;BME280;51310;52.198;5.422;2023-09-18T07:58:07;100128.38;;;19.25;94.56
64844;BME280;51310;52.198;5.422;2023-09-18T08:00:34;100134.47;;;19.27;94.13
64844;BME280;51310;52.198;5.422;2023-09-18T08:02:59;100129.25;;;19.25;93.39
64844;BME280;51310;52.198;5.422;2023-09-18T08:05:29;100132.94;;;19.32;92.97
64844;BME280;51310;52.198;5.422;2023-09-18T08:07:57;100140.41;;;19.30;92.37
64844;BME280;51310;52.198;5.422;2023-09-18T08:10:27;100146.31;;;19.34;91.91
64844;BME280;51310;52.198;5.422;2023-09-18T08:12:53;100152.41;;;19.44;92.01
64844;BME280;51310;52.198;5.422;2023-09-18T08:15:20;100147.34;;;19.41;91.61
64844;BME280;51310;52.198;5.422;2023-09-18T08:17:46;100144.78;;;19.48;91.23
64844;BME280;51310;52.198;5.422;2023-09-18T08:20:13;100136.81;;;19.46;91.28
64844;BME280;51310;52.198;5.422;2023-09-18T08:22:39;100164.72;;;19.63;90.92
64844;BME280;51310;52.198;5.422;2023-09-18T08:25:07;100160.03;;;19.57;90.63
64844;BME280;51310;52.198;5.422;2023-09-18T08:27:42;100167.63;;;19.62;90.20
64844;BME280;51310;52.198;5.422;2023-09-18T08:30:11;100174.56;;;19.56;89.65
64844;BME280;51310;52.198;5.422;2023-09-18T08:32:39;100175.75;;;19.53;89.47
64844;BME280;51310;52.198;5.422;2023-09-18T08:35:07;100161.41;;;19.37;89.21
64844;BME280;51310;52.198;5.422;2023-09-18T08:37:34;100156.63;;;19.47;89.41
64844;BME280;51310;52.198;5.422;2023-09-18T08:40:00;100161.22;;;19.54;89.65
64844;BME280;51310;52.198;5.422;2023-09-18T08:42:30;100168.00;;;19.50;89.42
64844;BME280;51310;52.198;5.422;2023-09-18T08:45:01;100173.56;;;19.49;89.79
64844;BME280;51310;52.198;5.422;2023-09-18T08:47:33;100169.84;;;19.50;89.72
64844;BME280;51310;52.198;5.422;2023-09-18T08:50:00;100179.34;;;19.46;89.34
64844;BME280;51310;52.198;5.422;2023-09-18T08:52:28;100175.28;;;19.50;89.73
64844;BME280;51310;52.198;5.422;2023-09-18T08:54:54;100179.66;;;19.59;89.31
64844;BME280;51310;52.198;5.422;2023-09-18T08:57:22;100182.22;;;19.52;88.47
64844;BME280;51310;52.198;5.422;2023-09-18T08:59:50;100194.06;;;19.51;88.75
64844;BME280;51310;52.198;5.422;2023-09-18T09:02:19;100198.97;;;19.56;88.60
64844;BME280;51310;52.198;5.422;2023-09-18T09:04:45;100183.06;;;19.53;88.42
64844;BME280;51310;52.198;5.422;2023-09-18T09:07:11;100196.25;;;19.56;87.08
64844;BME280;51310;52.198;5.422;2023-09-18T09:09:37;100189.31;;;19.45;87.11
64844;BME280;51310;52.198;5.422;2023-09-18T09:12:04;100215.94;;;19.50;86.90
64844;BME280;51310;52.198;5.422;2023-09-18T09:14:30;100201.00;;;19.54;86.43
64844;BME280;51310;52.198;5.422;2023-09-18T09:16:57;100199.63;;;19.58;86.52
64844;BME280;51310;52.198;5.422;2023-09-18T09:19:34;100196.59;;;19.69;86.10
64844;BME280;51310;52.198;5.422;2023-09-18T09:22:08;100191.66;;;19.81;86.24
64844;BME280;51310;52.198;5.422;2023-09-18T09:24:43;100197.25;;;19.96;85.04
64844;BME280;51310;52.198;5.422;2023-09-18T09:27:10;100196.03;;;19.99;84.70
64844;BME280;51310;52.198;5.422;2023-09-18T09:29:36;100199.25;;;20.02;84.57
64844;BME280;51310;52.198;5.422;2023-09-18T09:32:17;100185.03;;;20.00;83.79
64844;BME280;51310;52.198;5.422;2023-09-18T09:34:45;100204.78;;;20.25;83.51
64844;BME280;51310;52.198;5.422;2023-09-18T09:37:14;100211.31;;;20.47;82.57
64844;BME280;51310;52.198;5.422;2023-09-18T09:39:48;100216.00;;;20.53;82.00
64844;BME280;51310;52.198;5.422;2023-09-18T09:42:19;100214.84;;;20.56;80.85
64844;BME280;51310;52.198;5.422;2023-09-18T09:45:05;100221.44;;;20.53;80.95
64844;BME280;51310;52.198;5.422;2023-09-18T09:47:37;100232.97;;;20.55;79.98
64844;BME280;51310;52.198;5.422;2023-09-18T09:50:15;100222.34;;;20.37;79.66
64844;BME280;51310;52.198;5.422;2023-09-18T09:52:49;100220.22;;;20.16;79.40
64844;BME280;51310;52.198;5.422;2023-09-18T09:55:30;100217.91;;;20.05;79.49
64844;BME280;51310;52.198;5.422;2023-09-18T09:58:05;100244.66;;;20.08;79.41
64844;BME280;51310;52.198;5.422;2023-09-18T10:00:35;100224.00;;;19.99;78.98
64844;BME280;51310;52.198;5.422;2023-09-18T10:03:20;100238.06;;;20.11;78.63
64844;BME280;51310;52.198;5.422;2023-09-18T10:05:51;100238.91;;;20.11;79.01
64844;BME280;51310;52.198;5.422;2023-09-18T10:08:26;100244.28;;;20.28;78.88
64844;BME280;51310;52.198;5.422;2023-09-18T10:10:55;100234.94;;;20.30;77.77
64844;BME280;51310;52.198;5.422;2023-09-18T10:13:57;100249.13;;;20.49;78.05
64844;BME280;51310;52.198;5.422;2023-09-18T10:16:31;100255.03;;;20.52;77.09
64844;BME280;51310;52.198;5.422;2023-09-18T10:19:32;100241.28;;;20.62;77.53
64844;BME280;51310;52.198;5.422;2023-09-18T10:24:45;100231.13;;;20.87;75.82
64844;BME280;51310;52.198;5.422;2023-09-18T10:27:14;100239.22;;;21.04;75.52
64844;BME280;51310;52.198;5.422;2023-09-18T10:29:43;100248.75;;;21.23;75.63
64844;BME280;51310;52.198;5.422;2023-09-18T10:32:14;100237.34;;;21.27;74.93
64844;BME280;51310;52.198;5.422;2023-09-18T10:34:43;100235.28;;;21.29;74.46
64844;BME280;51310;52.198;5.422;2023-09-18T10:37:12;100248.16;;;21.35;74.70
64844;BME280;51310;52.198;5.422;2023-09-18T10:39:41;100245.19;;;21.22;75.36
64844;BME280;51310;52.198;5.422;2023-09-18T10:42:10;100256.53;;;21.03;74.57
64844;BME280;51310;52.198;5.422;2023-09-18T10:44:38;100267.72;;;21.08;74.40
64844;BME280;51310;52.198;5.422;2023-09-18T10:47:06;100260.53;;;21.15;74.54
64844;BME280;51310;52.198;5.422;2023-09-18T10:49:36;100264.84;;;21.32;75.22
64844;BME280;51310;52.198;5.422;2023-09-18T10:52:03;100242.72;;;21.35;73.79
64844;BME280;51310;52.198;5.422;2023-09-18T10:54:31;100263.91;;;21.48;73.58
64844;BME280;51310;52.198;5.422;2023-09-18T10:56:58;100266.13;;;21.45;73.23
64844;BME280;51310;52.198;5.422;2023-09-18T10:59:24;100264.38;;;21.52;73.78
64844;BME280;51310;52.198;5.422;2023-09-18T11:01:50;100265.03;;;21.54;72.84
64844;BME280;51310;52.198;5.422;2023-09-18T11:04:20;100248.06;;;21.52;72.91
64844;BME280;51310;52.198;5.422;2023-09-18T11:09:28;100244.50;;;21.51;72.56
64844;BME280;51310;52.198;5.422;2023-09-18T11:14:47;100260.03;;;21.42;73.11
64844;BME280;51310;52.198;5.422;2023-09-18T11:17:38;100250.59;;;21.53;73.09
64844;BME280;51310;52.198;5.422;2023-09-18T11:20:24;100245.78;;;21.78;72.39
64844;BME280;51310;52.198;5.422;2023-09-18T11:23:18;100247.47;;;21.79;71.21
64844;BME280;51310;52.198;5.422;2023-09-18T11:26:04;100246.38;;;21.51;70.54
64844;BME280;51310;52.198;5.422;2023-09-18T11:28:33;100236.22;;;21.45;69.70
64844;BME280;51310;52.198;5.422;2023-09-18T11:30:59;100248.56;;;21.55;71.31
64844;BME280;51310;52.198;5.422;2023-09-18T11:33:41;100254.66;;;21.57;71.68
64844;BME280;51310;52.198;5.422;2023-09-18T11:36:28;100245.06;;;21.47;71.36
64844;BME280;51310;52.198;5.422;2023-09-18T11:38:59;100249.00;;;21.36;71.31
64844;BME280;51310;52.198;5.422;2023-09-18T11:41:34;100242.97;;;21.26;71.75
64844;BME280;51310;52.198;5.422;2023-09-18T11:46:49;100242.47;;;21.22;71.27
64844;BME280;51310;52.198;5.422;2023-09-18T11:49:24;100244.16;;;21.23;71.80
64844;BME280;51310;52.198;5.422;2023-09-18T11:51:54;100235.16;;;21.23;72.37
64844;BME280;51310;52.198;5.422;2023-09-18T11:54:23;100235.59;;;21.34;72.43
64844;BME280;51310;52.198;5.422;2023-09-18T11:56:50;100224.91;;;21.56;71.24
64844;BME280;51310;52.198;5.422;2023-09-18T11:59:16;100222.59;;;21.68;69.74
64844;BME280;51310;52.198;5.422;2023-09-18T12:01:53;100242.25;;;21.93;69.14
64844;BME280;51310;52.198;5.422;2023-09-18T12:04:27;100226.78;;;22.08;69.17
64844;BME280;51310;52.198;5.422;2023-09-18T12:06:54;100234.19;;;21.99;68.09
64844;BME280;51310;52.198;5.422;2023-09-18T12:09:20;100241.41;;;21.77;69.19
64844;BME280;51310;52.198;5.422;2023-09-18T12:11:46;100232.81;;;21.66;70.14
64844;BME280;51310;52.198;5.422;2023-09-18T12:14:19;100257.53;;;21.56;70.90
64844;BME280;51310;52.198;5.422;2023-09-18T12:16:46;100246.72;;;21.48;72.00
64844;BME280;51310;52.198;5.422;2023-09-18T12:19:19;100238.50;;;21.33;72.40
64844;BME280;51310;52.198;5.422;2023-09-18T12:21:48;100238.50;;;21.33;72.49
64844;BME280;51310;52.198;5.422;2023-09-18T12:24:24;100251.81;;;21.51;72.70
64844;BME280;51310;52.198;5.422;2023-09-18T12:26:54;100218.81;;;21.92;71.99
64844;BME280;51310;52.198;5.422;2023-09-18T12:29:21;100224.56;;;22.27;70.98
64844;BME280;51310;52.198;5.422;2023-09-18T12:31:47;100229.66;;;22.30;68.98
64844;BME280;51310;52.198;5.422;2023-09-18T12:34:17;100217.94;;;22.29;68.20
64844;BME280;51310;52.198;5.422;2023-09-18T12:36:44;100227.59;;;22.32;67.96
64844;BME280;51310;52.198;5.422;2023-09-18T12:39:14;100232.94;;;22.25;67.74
64844;BME280;51310;52.198;5.422;2023-09-18T12:41:45;100227.50;;;22.25;67.86
64844;BME280;51310;52.198;5.422;2023-09-18T12:44:12;100222.66;;;22.12;67.80
64844;BME280;51310;52.198;5.422;2023-09-18T12:46:42;100223.72;;;22.26;67.64
64844;BME280;51310;52.198;5.422;2023-09-18T12:49:20;100221.44;;;22.15;66.73
64844;BME280;51310;52.198;5.422;2023-09-18T12:52:02;100215.63;;;22.03;67.14
64844;BME280;51310;52.198;5.422;2023-09-18T12:54:44;100217.50;;;22.17;66.00
64844;BME280;51310;52.198;5.422;2023-09-18T12:57:15;100214.63;;;22.34;65.68
64844;BME280;51310;52.198;5.422;2023-09-18T12:59:42;100214.44;;;22.35;65.84
64844;BME280;51310;52.198;5.422;2023-09-18T13:02:08;100192.88;;;22.34;65.49
64844;BME280;51310;52.198;5.422;2023-09-18T13:04:39;100183.38;;;22.30;65.51
64844;BME280;51310;52.198;5.422;2023-09-18T13:07:11;100176.88;;;22.31;65.65
64844;BME280;51310;52.198;5.422;2023-09-18T13:09:41;100192.88;;;22.34;65.84